Time;durP1;ratioP1;P1;durP2;ratioP2;P2;SDS_P1;SDS_P2;PMS_P1;PMS_P2;Temp;Humidity;BMP_temperature;BMP_pressure;BME280_temperature;BME280_humidity;BME280_pressure;Samples;Min_cycle;Max_cycle;Signal;HPM_P1;HPM_P2
2021/09/05 00:01:40;;;;;;;11.35;5.20;;;;;;;21.78;77.37;101086.63;5035225;28;20401;-63
2021/09/05 00:04:08;;;;;;;14.52;5.68;;;;;;;21.92;77.26;101082.00;5035098;28;20077;-62
2021/09/05 00:06:35;;;;;;;14.60;6.07;;;;;;;21.90;77.70;101075.97;5036868;28;20046;-65
2021/09/05 00:09:03;;;;;;;14.32;6.22;;;;;;;21.95;78.08;101083.25;5036448;28;20052;-62
2021/09/05 00:11:31;;;;;;;18.25;7.55;;;;;;;21.77;79.72;101073.75;5035165;28;20057;-61
2021/09/05 00:13:58;;;;;;;15.40;7.65;;;;;;;21.79;79.10;101079.84;5049562;28;20053;-63
2021/09/05 00:16:26;;;;;;;14.05;7.57;;;;;;;21.83;78.94;101077.88;5046375;28;20037;-62
2021/09/05 00:18:54;;;;;;;13.20;7.25;;;;;;;22.07;78.24;101083.00;5036232;28;20061;-61
2021/09/05 00:21:21;;;;;;;17.25;6.60;;;;;;;22.19;78.18;101080.72;5035316;28;20049;-60
2021/09/05 00:23:48;;;;;;;11.02;5.72;;;;;;;22.00;79.33;101088.53;5036383;28;20523;-62
2021/09/05 00:26:15;;;;;;;12.90;6.47;;;;;;;21.98;79.53;101093.72;5036914;28;20049;-62
2021/09/05 00:28:43;;;;;;;9.77;6.15;;;;;;;22.01;80.24;101099.38;5017559;28;20069;-62
2021/09/05 00:31:10;;;;;;;11.50;6.68;;;;;;;21.90;80.50;101092.81;5018704;28;20057;-62
2021/09/05 00:33:37;;;;;;;9.85;6.68;;;;;;;21.66;81.85;101089.63;5036086;28;20064;-62
2021/09/05 00:36:07;;;;;;;11.18;6.53;;;;;;;21.67;82.00;101088.44;5036304;28;20060;-62
2021/09/05 00:38:35;;;;;;;10.93;5.75;;;;;;;21.57;82.11;101095.50;5035810;28;20057;-61
2021/09/05 00:41:02;;;;;;;11.25;5.60;;;;;;;21.41;83.18;101105.28;5034909;28;20045;-61
2021/09/05 00:43:29;;;;;;;9.75;5.32;;;;;;;21.34;83.31;101108.75;5034681;28;20053;-62
2021/09/05 00:45:56;;;;;;;23.40;5.65;;;;;;;21.27;83.51;101109.47;5034903;28;20052;-62
2021/09/05 00:48:26;;;;;;;9.50;5.18;;;;;;;21.19;84.16;101102.13;5034713;28;20049;-62
2021/09/05 00:50:53;;;;;;;9.95;4.90;;;;;;;21.25;83.52;101094.22;5035078;28;20060;-58
2021/09/05 00:53:20;;;;;;;10.68;5.30;;;;;;;21.27;83.47;101091.84;5018331;28;20385;-57
2021/09/05 00:55:48;;;;;;;10.82;5.47;;;;;;;20.99;84.85;101080.19;5034309;28;20049;-55
2021/09/05 00:58:16;;;;;;;11.18;5.70;;;;;;;21.34;83.97;101082.75;5035536;28;20053;-62
2021/09/05 01:00:44;;;;;;;11.45;7.30;;;;;;;21.58;82.58;101085.94;5018252;28;20489;-60
2021/09/05 01:03:13;;;;;;;10.32;6.43;;;;;;;21.48;83.05;101094.19;5035470;28;20065;-61
2021/09/05 01:05:41;;;;;;;12.20;6.07;;;;;;;21.70;82.12;101091.31;5017603;28;20061;-61
2021/09/05 01:08:09;;;;;;;13.13;7.35;;;;;;;21.68;81.71;101085.25;5035262;28;20060;-62
2021/09/05 01:10:36;;;;;;;11.20;6.60;;;;;;;21.62;82.52;101083.97;5035206;28;20060;-61
2021/09/05 01:13:04;;;;;;;11.63;6.20;;;;;;;21.88;81.33;101078.34;5041242;28;20056;-61
2021/09/05 01:15:31;;;;;;;12.00;6.18;;;;;;;21.87;81.34;101076.75;5053186;28;20049;-62
2021/09/05 01:18:04;;;;;;;9.68;6.07;;;;;;;21.88;81.54;101085.97;5053669;28;20049;-62
2021/09/05 01:21:01;;;;;;;12.43;6.60;;;;;;;21.63;82.68;101085.59;5049988;28;20061;-57
2021/09/05 01:23:48;;;;;;;13.82;7.20;;;;;;;21.64;83.51;101089.19;5049219;28;20049;-58
2021/09/05 01:26:44;;;;;;;12.27;7.07;;;;;;;21.92;82.09;101090.44;5029475;28;20057;-59
2021/09/05 01:29:28;;;;;;;12.30;6.90;;;;;;;21.91;82.18;101090.81;5034072;28;20045;-62
2021/09/05 01:32:21;;;;;;;11.18;7.65;;;;;;;21.61;84.13;101096.38;5034163;28;20061;-62
2021/09/05 01:35:24;;;;;;;11.40;7.45;;;;;;;21.50;85.23;101097.38;5034905;28;20053;-63
2021/09/05 01:38:20;;;;;;;11.45;6.70;;;;;;;21.64;84.45;101095.63;5035016;28;20494;-61
2021/09/05 01:41:05;;;;;;;15.23;7.45;;;;;;;21.75;83.83;101090.97;5034840;28;20049;-61
2021/09/05 01:43:59;;;;;;;12.10;7.10;;;;;;;21.66;83.99;101098.84;5015197;28;20377;-57
2021/09/05 01:46:45;;;;;;;11.70;7.45;;;;;;;21.61;84.32;101095.56;5015204;28;20050;-56
2021/09/05 01:49:34;;;;;;;12.95;7.47;;;;;;;21.56;84.25;101102.31;5013364;28;20054;-62
2021/09/05 01:52:37;;;;;;;12.30;8.30;;;;;;;21.43;85.84;101103.69;4993651;28;20057;-62
2021/09/05 01:55:16;;;;;;;15.83;9.50;;;;;;;21.39;87.14;101111.28;5015027;28;20045;-58
2021/09/05 01:58:09;;;;;;;13.15;8.57;;;;;;;21.72;84.73;101108.56;5022209;28;20049;-63
2021/09/05 02:01:11;;;;;;;15.73;9.40;;;;;;;;;;5020128;28;20061;-62
2021/09/05 02:03:56;;;;;;;12.45;7.88;;;;;;;21.89;83.23;101118.44;5046467;28;20087;-61
2021/09/05 02:06:46;;;;;;;11.13;7.88;;;;;;;21.78;83.46;101101.44;5034087;28;20049;-60
2021/09/05 02:09:33;;;;;;;12.40;8.18;;;;;;;21.98;83.21;101111.34;5033834;28;20061;-61
2021/09/05 02:12:27;;;;;;;11.75;8.00;;;;;;;22.00;82.69;101106.16;5034743;28;20049;-62
2021/09/05 02:15:23;;;;;;;14.13;10.23;;;;;;;21.85;83.32;101107.16;5035269;28;20057;-58
2021/09/05 02:18:13;;;;;;;14.40;8.90;;;;;;;22.03;82.45;101101.78;5034035;28;20061;-58
2021/09/05 02:20:52;;;;;;;12.85;10.75;;;;;;;21.88;83.31;101105.59;5016205;28;20057;-59
2021/09/05 02:23:38;;;;;;;15.23;9.30;;;;;;;21.61;84.86;101118.81;5034022;28;20512;-62
2021/09/05 02:26:32;;;;;;;15.75;9.82;;;;;;;21.61;85.36;101101.97;5032096;28;20069;-62
2021/09/05 02:29:19;;;;;;;13.95;9.95;;;;;;;21.64;85.91;101104.03;5030369;28;20581;-62
2021/09/05 02:32:07;;;;;;;14.48;10.85;;;;;;;21.40;85.97;101092.44;5032789;28;20060;-62
2021/09/05 02:34:56;;;;;;;15.15;10.68;;;;;;;21.61;84.97;101099.19;5032755;28;20057;-61
2021/09/05 02:37:49;;;;;;;13.20;10.30;;;;;;;21.61;84.82;101110.41;5016939;28;20060;-56
2021/09/05 02:40:40;;;;;;;17.48;11.75;;;;;;;21.74;83.86;101106.16;5019311;28;20057;-61
2021/09/05 02:43:33;;;;;;;14.38;9.52;;;;;;;21.95;82.78;101109.28;5012598;28;20049;-62
2021/09/05 02:46:29;;;;;;;14.95;8.98;;;;;;;21.71;84.60;101106.13;5012997;28;20065;-62
2021/09/05 02:49:16;;;;;;;15.52;8.43;;;;;;;21.65;86.15;101102.03;5020773;28;20517;-62
2021/09/05 02:52:09;;;;;;;12.95;8.90;;;;;;;21.71;85.26;101109.72;5033638;28;20434;-62
2021/09/05 02:54:57;;;;;;;13.50;8.25;;;;;;;21.72;85.32;101114.19;5042016;28;20057;-57
2021/09/05 02:57:56;;;;;;;12.60;8.50;;;;;;;21.67;85.88;101114.47;5032558;28;20045;-57
2021/09/05 03:00:41;;;;;;;11.73;8.00;;;;;;;21.73;85.28;101106.53;5032284;28;20148;-57
2021/09/05 03:03:27;;;;;;;13.27;8.45;;;;;;;21.66;86.48;101110.06;5033420;28;20053;-54
2021/09/05 03:06:15;;;;;;;10.57;7.55;;;;;;;21.88;84.72;101102.81;5018476;28;20053;-57
2021/09/05 03:09:02;;;;;;;14.88;8.82;;;;;;;21.91;84.34;101102.84;5033241;28;20057;-63
2021/09/05 03:11:55;;;;;;;12.50;8.38;;;;;;;21.88;84.06;101102.81;5031333;28;20054;-63
2021/09/05 03:14:43;;;;;;;11.85;7.88;;;;;;;21.85;84.19;101101.56;5030708;28;20066;-61
2021/09/05 03:17:31;;;;;;;12.65;8.57;;;;;;;21.85;84.08;101107.16;5006288;28;20054;-62
2021/09/05 03:20:31;;;;;;;14.57;8.52;;;;;;;21.81;84.68;101106.28;5016238;28;20057;-61
2021/09/05 03:23:19;;;;;;;13.27;8.80;;;;;;;21.85;84.32;101107.16;5026181;28;20069;-62
2021/09/05 03:26:04;;;;;;;12.52;8.57;;;;;;;21.77;85.00;101104.63;5036286;28;20489;-62
2021/09/05 03:29:03;;;;;;;14.93;10.02;;;;;;;21.60;86.08;101108.75;5017489;28;20062;-57
2021/09/05 03:31:53;;;;;;;13.07;8.98;;;;;;;21.64;85.34;101106.81;5034238;28;20061;-61
2021/09/05 03:34:50;;;;;;;12.85;8.85;;;;;;;21.69;85.58;101111.31;5036387;28;20061;-59
2021/09/05 03:37:36;;;;;;;16.15;9.57;;;;;;;21.65;85.86;101108.47;5035865;28;20041;-61
2021/09/05 03:40:31;;;;;;;15.27;10.05;;;;;;;21.73;85.25;101098.94;5035272;28;20041;-58
2021/09/05 03:43:21;;;;;;;15.25;9.98;;;;;;;21.62;85.58;101092.38;5037084;28;20053;-61
2021/09/05 03:46:21;;;;;;;15.05;10.00;;;;;;;21.52;86.53;101097.81;5025017;28;20065;-60
2021/09/05 03:49:13;;;;;;;16.05;11.32;;;;;;;;;;5018477;28;20053;-61
2021/09/05 03:51:43;;;;;;;14.07;10.27;;;;;;;21.70;85.19;101094.09;5035626;28;20065;-60
2021/09/05 03:54:15;;;;;;;15.93;10.63;;;;;;;21.70;85.46;101101.72;5035518;28;20544;-57
2021/09/05 03:56:44;;;;;;;13.57;10.27;;;;;;;21.83;85.10;101097.50;5035713;28;20057;-61
2021/09/05 03:59:11;;;;;;;15.05;10.75;;;;;;;21.79;84.69;101096.66;5035754;28;20041;-58
2021/09/05 04:01:39;;;;;;;16.80;10.25;;;;;;;21.86;84.30;101103.16;5035426;28;20060;-56
2021/09/05 04:04:16;;;;;;;17.05;11.27;;;;;;;21.66;85.28;101109.25;5034722;28;20071;-58
2021/09/05 04:06:49;;;;;;;13.70;10.48;;;;;;;21.84;84.47;101090.72;5019243;28;20057;-57
2021/09/05 04:12:02;;;;;;;14.30;11.60;;;;;;;21.58;86.08;101105.56;5036607;28;20050;-57
2021/09/05 04:14:29;;;;;;;15.45;11.77;;;;;;;21.75;84.78;101102.19;5042719;28;20056;-58
2021/09/05 04:17:00;;;;;;;19.50;12.45;;;;;;;21.64;85.87;101109.63;5036640;28;20076;-62
2021/09/05 04:19:28;;;;;;;17.13;12.60;;;;;;;21.81;84.71;101109.09;5018759;28;20057;-62
2021/09/05 04:21:55;;;;;;;21.25;11.65;;;;;;;21.84;84.28;101108.34;5036588;28;20406;-61
2021/09/05 04:24:22;;;;;;;15.82;12.05;;;;;;;21.75;84.92;101107.78;5018798;28;20121;-61
2021/09/05 04:26:50;;;;;;;16.92;12.23;;;;;;;21.72;84.88;101102.94;5035293;28;20057;-62
2021/09/05 04:29:17;;;;;;;15.63;12.00;;;;;;;21.67;85.08;101103.25;5036469;28;20050;-62
2021/09/05 04:31:44;;;;;;;16.92;12.25;;;;;;;21.61;85.53;101106.78;5036142;28;20069;-57
2021/09/05 04:34:12;;;;;;;16.40;11.80;;;;;;;21.75;85.03;101113.41;5034344;28;20076;-62
2021/09/05 04:36:39;;;;;;;16.00;11.65;;;;;;;21.68;84.88;101121.72;5035119;28;20461;-61
2021/09/05 04:39:06;;;;;;;19.10;12.25;;;;;;;21.76;84.99;101123.41;5035856;28;20068;-61
2021/09/05 04:41:34;;;;;;;17.40;11.82;;;;;;;21.75;84.51;101118.19;5035813;28;20056;-62
2021/09/05 04:44:01;;;;;;;17.85;12.13;;;;;;;21.74;84.96;101123.00;5034760;28;20421;-62
2021/09/05 04:46:28;;;;;;;17.48;13.20;;;;;;;21.74;84.86;101127.81;5017169;28;20065;-62
2021/09/05 04:48:56;;;;;;;20.20;13.35;;;;;;;21.54;86.03;101127.09;5030170;28;20049;-64
2021/09/05 04:51:23;;;;;;;17.70;13.98;;;;;;;21.44;86.16;101126.94;5035524;28;20509;-62
2021/09/05 04:53:50;;;;;;;19.50;14.13;;;;;;;21.39;87.24;101133.69;5035845;28;20053;-62
2021/09/05 04:56:17;;;;;;;17.23;13.18;;;;;;;21.59;85.93;101129.59;5033794;28;20057;-62
2021/09/05 04:58:45;;;;;;;19.42;12.63;;;;;;;21.58;85.95;101132.78;5035822;28;20041;-62
2021/09/05 05:01:13;;;;;;;17.88;12.95;;;;;;;21.51;85.86;101143.88;5033634;28;20053;-62
2021/09/05 05:03:41;;;;;;;18.27;13.68;;;;;;;21.67;85.34;101142.50;5035545;28;20057;-57
2021/09/05 05:06:28;;;;;;;15.82;13.00;;;;;;;21.68;85.25;101146.94;5036182;28;20057;-61
2021/09/05 05:08:55;;;;;;;18.05;12.68;;;;;;;21.61;85.05;101146.03;5034340;28;20041;-61
2021/09/05 05:11:23;;;;;;;18.27;13.02;;;;;;;21.63;85.63;101149.25;5035439;28;20053;-62
2021/09/05 05:13:52;;;;;;;17.27;12.88;;;;;;;21.51;85.74;101161.50;5042697;28;20493;-62
2021/09/05 05:16:19;;;;;;;19.58;13.40;;;;;;;21.59;86.25;101157.63;5035559;28;20053;-62
2021/09/05 05:18:47;;;;;;;16.73;13.40;;;;;;;21.72;85.51;101159.03;5035168;28;20413;-62
2021/09/05 05:21:14;;;;;;;17.25;13.40;;;;;;;21.73;85.14;101155.03;5033857;28;20060;-58
2021/09/05 05:23:41;;;;;;;17.48;13.27;;;;;;;21.80;84.41;101162.78;5017390;28;20049;-62
2021/09/05 05:26:09;;;;;;;16.60;12.93;;;;;;;21.63;85.25;101169.72;5034335;28;20053;-62
2021/09/05 05:28:36;;;;;;;21.98;14.13;;;;;;;21.62;86.03;101167.28;5035140;28;20049;-57
2021/09/05 05:31:03;;;;;;;19.50;13.35;;;;;;;21.55;85.84;101176.38;5034908;28;20052;-58
2021/09/05 05:33:31;;;;;;;19.60;13.02;;;;;;;21.53;85.83;101175.94;5033823;28;20053;-57
2021/09/05 05:35:58;;;;;;;18.65;14.68;;;;;;;21.37;86.94;101172.50;5034904;28;20528;-56
2021/09/05 05:38:25;;;;;;;19.25;14.73;;;;;;;21.49;87.07;101177.06;5033164;28;20041;-62
2021/09/05 05:40:53;;;;;;;19.25;14.38;;;;;;;21.59;86.17;101170.81;5035069;28;20057;-62
2021/09/05 05:43:20;;;;;;;18.23;13.88;;;;;;;21.46;86.54;101184.25;5034897;28;20053;-59
2021/09/05 05:45:50;;;;;;;19.95;13.77;;;;;;;21.66;85.74;101174.56;5026029;28;20061;-58
2021/09/05 05:48:17;;;;;;;18.33;13.48;;;;;;;21.60;85.67;101176.03;5034949;28;20129;-62
2021/09/05 05:50:47;;;;;;;16.80;13.38;;;;;;;21.52;86.15;101190.34;5032696;28;20054;-61
2021/09/05 05:53:14;;;;;;;18.58;14.80;;;;;;;21.73;85.01;101177.47;5017212;28;20520;-63
2021/09/05 05:55:42;;;;;;;16.95;13.18;;;;;;;21.68;84.81;101179.78;5033064;28;20057;-58
2021/09/05 05:58:09;;;;;;;18.67;14.45;;;;;;;21.75;84.49;101179.88;5032447;28;20164;-58
2021/09/05 06:00:38;;;;;;;18.27;13.25;;;;;;;21.65;83.50;101181.38;5034328;28;20053;-59
2021/09/05 06:03:07;;;;;;;16.75;12.57;;;;;;;21.61;82.72;101182.47;5034288;28;20065;-58
2021/09/05 06:05:34;;;;;;;18.13;12.55;;;;;;;21.73;81.72;101190.66;5034206;28;20571;-57
2021/09/05 06:08:04;;;;;;;17.60;12.73;;;;;;;21.74;80.82;101190.28;5016967;28;20045;-59
2021/09/05 06:10:32;;;;;;;15.68;12.60;;;;;;;21.55;79.86;101196.00;5033117;28;20072;-58
2021/09/05 06:12:59;;;;;;;18.05;12.00;;;;;;;21.62;79.29;101189.72;5034058;28;20045;-58
2021/09/05 06:15:27;;;;;;;21.27;12.00;;;;;;;21.89;78.51;101197.78;5034153;28;20052;-58
2021/09/05 06:17:54;;;;;;;15.05;11.38;;;;;;;21.70;78.39;101202.66;5032187;28;20060;-58
2021/09/05 06:20:21;;;;;;;18.67;12.30;;;;;;;21.90;77.68;101202.19;5034163;28;20049;-59
2021/09/05 06:22:48;;;;;;;16.40;10.88;;;;;;;21.94;77.07;101205.06;5032846;28;20451;-57
2021/09/05 06:25:16;;;;;;;15.77;11.43;;;;;;;21.92;77.07;101207.41;5032710;28;20052;-56
2021/09/05 06:27:44;;;;;;;16.50;12.68;;;;;;;21.80;76.22;101210.44;5033886;28;20054;-56
2021/09/05 06:30:12;;;;;;;13.98;9.88;;;;;;;21.65;75.70;101215.00;5034030;28;20079;-59
2021/09/05 06:32:39;;;;;;;15.32;9.80;;;;;;;21.56;75.61;101213.63;5033539;28;20392;-59
2021/09/05 06:35:07;;;;;;;14.10;9.98;;;;;;;21.51;75.44;101219.56;5032891;28;20477;-57
2021/09/05 06:37:37;;;;;;;15.13;10.20;;;;;;;21.64;75.36;101221.78;5033650;28;20049;-59
2021/09/05 06:40:05;;;;;;;13.93;9.82;;;;;;;21.67;75.01;101234.25;5033571;28;20044;-58
2021/09/05 06:42:33;;;;;;;15.30;10.27;;;;;;;21.66;74.97;101225.03;5033533;28;20057;-58
2021/09/05 06:45:00;;;;;;;13.93;9.40;;;;;;;21.75;75.22;101228.38;5033422;28;20097;-57
2021/09/05 06:47:28;;;;;;;18.80;13.73;;;;;;;21.74;74.62;101231.56;5030650;28;20164;-58
2021/09/05 06:49:55;;;;;;;13.95;10.30;;;;;;;21.79;74.30;101236.88;5031956;28;20445;-58
2021/09/05 06:52:23;;;;;;;14.18;10.38;;;;;;;21.85;74.30;101243.78;5033508;28;20142;-58
2021/09/05 06:54:50;;;;;;;14.77;10.45;;;;;;;21.90;74.64;101244.28;5033623;28;20195;-58
2021/09/05 06:57:17;;;;;;;15.15;10.05;;;;;;;21.96;74.28;101245.59;5033764;28;20049;-60
2021/09/05 06:59:44;;;;;;;15.25;10.35;;;;;;;22.07;74.24;101240.13;5032482;28;20164;-60
2021/09/05 07:02:16;;;;;;;13.77;10.23;;;;;;;22.06;73.64;101258.13;5033302;28;20409;-58
2021/09/05 07:04:44;;;;;;;15.85;9.95;;;;;;;22.02;73.61;101263.69;5031949;28;20060;-59
2021/09/05 07:07:14;;;;;;;12.38;9.75;;;;;;;22.22;73.83;101256.78;5033690;28;20053;-60
2021/09/05 07:09:41;;;;;;;12.73;10.65;;;;;;;22.21;73.27;101260.00;5030752;28;20053;-58
2021/09/05 07:12:09;;;;;;;15.40;10.25;;;;;;;21.91;73.54;101265.53;5033168;28;20137;-59
2021/09/05 07:14:36;;;;;;;15.20;10.68;;;;;;;21.87;73.91;101261.88;5053002;28;20563;-60
2021/09/05 07:17:04;;;;;;;13.80;9.95;;;;;;;21.96;73.35;101261.59;5038698;28;20045;-58
2021/09/05 07:19:31;;;;;;;13.85;9.30;;;;;;;21.96;73.80;101262.41;5033289;28;20061;-55
2021/09/05 07:21:58;;;;;;;13.57;9.77;;;;;;;21.97;73.64;101266.81;5032078;28;20064;-62
2021/09/05 07:24:26;;;;;;;15.68;10.52;;;;;;;21.99;74.13;101258.03;5033160;28;20049;-62
2021/09/05 07:26:53;;;;;;;12.85;9.73;;;;;;;21.82;73.91;101262.19;5033225;28;20049;-61
2021/09/05 07:29:20;;;;;;;15.98;9.70;;;;;;;21.67;74.48;101263.09;5033562;28;20054;-61
2021/09/05 07:31:48;;;;;;;12.98;9.68;;;;;;;21.79;74.61;101268.53;5033006;28;20045;-61
2021/09/05 07:34:16;;;;;;;15.43;10.23;;;;;;;22.00;73.92;101268.88;5031666;28;20056;-63
2021/09/05 07:36:43;;;;;;;18.42;11.70;;;;;;;22.53;73.14;101271.63;5029548;28;20053;-62
2021/09/05 07:39:11;;;;;;;14.30;10.02;;;;;;;22.69;71.84;101261.88;5032908;28;20449;-64
2021/09/05 07:41:38;;;;;;;16.25;9.75;;;;;;;23.03;70.81;101274.72;5031896;28;20056;-63
2021/09/05 07:44:05;;;;;;;12.68;9.52;;;;;;;23.07;69.78;101267.16;5016999;28;20169;-64
2021/09/05 07:46:33;;;;;;;14.75;10.23;;;;;;;23.15;69.64;101273.66;5044108;28;20171;-64
2021/09/05 07:49:00;;;;;;;14.65;10.48;;;;;;;22.91;69.51;101285.44;5030888;28;20477;-66
2021/09/05 07:51:37;;;;;;;18.98;13.55;;;;;;;23.01;69.56;101284.75;4997160;28;20556;-64
2021/09/05 07:54:04;;;;;;;16.80;12.90;;;;;;;23.06;69.09;101287.19;5032322;28;20053;-65
2021/09/05 07:56:31;;;;;;;18.08;12.40;;;;;;;23.18;68.94;101290.56;5003340;28;20049;-67
2021/09/05 07:58:59;;;;;;;11.68;7.85;;;;;;;23.33;66.83;101285.91;5019850;28;20045;-65
2021/09/05 08:01:26;;;;;;;13.30;8.30;;;;;;;22.94;67.19;101293.91;5034276;28;20045;-62
2021/09/05 08:03:54;;;;;;;12.68;8.40;;;;;;;22.92;67.68;101293.47;5036582;28;20053;-67
2021/09/05 08:06:23;;;;;;;13.52;8.80;;;;;;;23.08;67.82;101298.88;5040516;28;20060;-62
2021/09/05 08:08:50;;;;;;;15.75;11.38;;;;;;;23.10;67.39;101297.28;5048421;28;20061;-61
2021/09/05 08:11:17;;;;;;;15.77;10.43;;;;;;;23.20;66.91;101309.84;5035800;28;20050;-60
2021/09/05 08:13:45;;;;;;;13.95;9.98;;;;;;;23.17;67.50;101303.00;5034705;28;20049;-61
2021/09/05 08:16:12;;;;;;;13.10;8.90;;;;;;;22.98;66.63;101300.34;5036123;28;20049;-61
2021/09/05 08:18:40;;;;;;;10.45;8.20;;;;;;;23.07;67.56;101298.06;5036074;28;20048;-61
2021/09/05 08:21:08;;;;;;;14.23;9.07;;;;;;;23.20;66.12;101305.06;5035614;28;20049;-60
2021/09/05 08:23:37;;;;;;;15.70;11.93;;;;;;;23.32;66.53;101312.44;5033008;28;20056;-61
2021/09/05 08:26:06;;;;;;;16.73;9.75;;;;;;;23.19;66.78;101311.84;5036281;28;20053;-61
2021/09/05 08:28:33;;;;;;;15.63;8.93;;;;;;;23.58;66.49;101320.72;5035261;28;20041;-66
2021/09/05 08:31:01;;;;;;;12.60;8.65;;;;;;;23.41;66.19;101313.72;5036042;28;20046;-67
2021/09/05 08:33:29;;;;;;;12.05;8.85;;;;;;;23.50;65.80;101313.44;5033353;28;20057;-67
2021/09/05 08:35:56;;;;;;;11.63;8.80;;;;;;;23.46;65.05;101321.00;5034976;28;20447;-67
2021/09/05 08:38:24;;;;;;;14.68;9.40;;;;;;;23.54;64.97;101319.09;5035434;28;20061;-66
2021/09/05 08:40:51;;;;;;;13.88;8.80;;;;;;;23.62;65.29;101320.78;5032086;28;20438;-66
2021/09/05 08:43:22;;;;;;;10.85;8.00;;;;;;;23.79;65.33;101309.69;5042316;28;20049;-67
2021/09/05 08:45:50;;;;;;;14.50;9.73;;;;;;;23.98;64.22;101309.44;5030395;28;20374;-67
2021/09/05 08:48:18;;;;;;;12.20;8.93;;;;;;;23.79;64.39;101317.31;5034837;28;20050;-61
2021/09/05 08:50:50;;;;;;;13.73;9.27;;;;;;;23.81;65.00;101312.09;5033562;28;20046;-61
2021/09/05 08:53:18;;;;;;;16.52;10.07;;;;;;;23.88;64.01;101309.34;5033447;28;20061;-61
2021/09/05 08:55:46;;;;;;;14.80;9.55;;;;;;;23.81;63.71;101315.75;5030488;28;20053;-62
2021/09/05 08:58:14;;;;;;;13.75;9.95;;;;;;;23.42;64.60;101320.16;5035513;28;20057;-61
2021/09/05 09:00:42;;;;;;;14.77;10.48;;;;;;;23.62;65.15;101323.59;5035187;28;20060;-61
2021/09/05 09:03:18;;;;;;;13.77;9.77;;;;;;;23.69;64.44;101326.47;5037170;28;20052;-62
2021/09/05 09:05:51;;;;;;;16.48;10.15;;;;;;;23.63;64.45;101323.19;5033838;28;20049;-62
2021/09/05 09:08:19;;;;;;;15.48;9.90;;;;;;;23.49;64.98;101325.03;5035756;28;20056;-61
2021/09/05 09:10:54;;;;;;;15.25;9.68;;;;;;;23.42;64.81;101334.22;5033284;28;20045;-60
2021/09/05 09:13:23;;;;;;;16.92;9.40;;;;;;;23.72;63.93;101331.31;5043245;28;20052;-62
2021/09/05 09:15:50;;;;;;;13.65;9.48;;;;;;;23.34;64.52;101330.50;5034972;28;20523;-63
2021/09/05 09:18:28;;;;;;;15.43;9.52;;;;;;;23.04;64.92;101331.75;5034362;28;20057;-62
2021/09/05 09:20:58;;;;;;;11.85;8.65;;;;;;;23.07;65.83;101326.16;5039947;28;20136;-63
2021/09/05 09:23:30;;;;;;;16.30;8.88;;;;;;;23.20;65.36;101338.78;5041290;28;20042;-62
2021/09/05 09:26:00;;;;;;;13.15;8.40;;;;;;;23.34;65.43;101336.13;5036301;28;20064;-63
2021/09/05 09:28:32;;;;;;;;;;;;;;;23.50;64.25;101330.31;5028275;28;20050;-62
2021/09/05 09:31:05;;;;;;;11.57;8.82;;;;;;;23.43;64.25;101321.78;5032521;28;19921;-62
2021/09/05 09:33:32;;;;;;;15.65;9.60;;;;;;;23.57;64.82;101327.56;5025832;28;20049;-62
2021/09/05 09:36:01;;;;;;;15.30;10.07;;;;;;;23.83;63.95;101335.84;5026199;28;20050;-62
2021/09/05 09:38:29;;;;;;;16.67;8.95;;;;;;;23.83;63.71;101338.66;5032913;28;20045;-62
2021/09/05 09:41:06;;;;;;;12.23;9.98;;;;;;;23.48;64.11;101329.06;5031576;28;20160;-61
2021/09/05 09:43:47;;;;;;;14.80;8.57;;;;;;;23.94;63.99;101324.66;5018537;28;20053;-62
2021/09/05 09:46:16;;;;;;;;;;;;;;;23.87;62.90;101324.63;5020071;28;20054;-61
2021/09/05 09:48:44;;;;;;;16.23;7.95;;;;;;;23.93;62.78;101326.69;5019051;28;19921;-63
2021/09/05 09:51:13;;;;;;;11.32;8.15;;;;;;;24.19;61.42;101326.53;5032807;28;20536;-62
2021/09/05 09:53:41;;;;;;;14.48;8.77;;;;;;;24.53;61.21;101324.31;5018625;28;20061;-62
2021/09/05 09:56:11;;;;;;;11.23;9.00;;;;;;;24.73;61.34;101324.88;5031693;28;20049;-62
2021/09/05 09:58:39;;;;;;;19.65;11.57;;;;;;;24.65;60.59;101317.56;5004879;28;20437;-61
2021/09/05 10:01:06;;;;;;;16.45;8.82;;;;;;;24.73;59.92;101319.25;5030151;28;20046;-63
2021/09/05 10:03:35;;;;;;;15.00;9.60;;;;;;;24.57;60.49;101327.97;5032252;28;20049;-62
2021/09/05 10:06:03;;;;;;;14.23;9.10;;;;;;;24.72;60.17;101317.63;5031879;28;20079;-63
2021/09/05 10:08:31;;;;;;;15.55;9.75;;;;;;;24.23;61.31;101318.13;5032327;28;20050;-62
2021/09/05 10:10:59;;;;;;;11.02;7.88;;;;;;;24.30;60.98;101321.75;5021206;28;20060;-63
2021/09/05 10:13:31;;;;;;;12.77;8.85;;;;;;;24.58;60.93;101317.53;5033187;28;20061;-62
2021/09/05 10:16:00;;;;;;;13.50;7.93;;;;;;;24.57;59.85;101318.72;5029313;28;20049;-61
2021/09/05 10:18:28;;;;;;;12.00;8.20;;;;;;;24.71;59.81;101319.66;5032646;28;20058;-62
2021/09/05 10:20:59;;;;;;;11.20;7.70;;;;;;;24.70;59.30;101315.22;5025618;28;20034;-61
2021/09/05 10:23:35;;;;;;;11.18;7.47;;;;;;;24.71;59.64;101316.00;5031917;28;20072;-61
2021/09/05 10:26:10;;;;;;;14.15;10.10;;;;;;;24.81;59.77;101310.44;5033310;28;20053;-62
2021/09/05 10:28:43;;;;;;;11.45;8.48;;;;;;;25.27;59.23;101302.16;5032080;28;20060;-62
2021/09/05 10:31:31;;;;;;;14.32;10.77;;;;;;;25.37;58.28;101313.50;5031836;28;20064;-62
2021/09/05 10:33:59;;;;;;;13.63;6.95;;;;;;;25.87;55.63;101310.75;5030266;28;20056;-61
2021/09/05 10:36:28;;;;;;;14.35;7.40;;;;;;;25.75;56.18;101308.31;5033215;28;20060;-62
2021/09/05 10:39:08;;;;;;;11.70;8.18;;;;;;;25.67;56.74;101313.13;5031075;28;20058;-61
2021/09/05 10:42:02;;;;;;;12.30;7.75;;;;;;;25.76;56.17;101307.91;5032770;28;20041;-62
2021/09/05 10:45:02;;;;;;;10.15;7.82;;;;;;;25.34;56.64;101304.97;5015804;28;20058;-62
2021/09/05 10:47:42;;;;;;;12.88;8.95;;;;;;;25.07;57.76;101307.31;5039344;28;20049;-62
2021/09/05 10:50:38;;;;;;;13.27;8.70;;;;;;;25.08;57.84;101308.94;5035145;28;20049;-61
2021/09/05 10:53:23;;;;;;;12.43;8.30;;;;;;;24.72;58.49;101301.56;5031405;28;20041;-62
2021/09/05 10:56:10;;;;;;;12.80;8.10;;;;;;;24.92;58.32;101302.03;5031647;28;20494;-62
2021/09/05 10:58:46;;;;;;;9.70;7.57;;;;;;;25.11;57.45;101302.50;5030600;28;20053;-61
2021/09/05 11:01:33;;;;;;;14.27;8.07;;;;;;;25.25;57.03;101304.56;5032767;28;20054;-62
2021/09/05 11:04:21;;;;;;;10.00;6.43;;;;;;;25.22;56.92;101302.53;5031226;28;20053;-62
2021/09/05 11:07:03;;;;;;;9.52;6.43;;;;;;;25.41;56.89;101300.22;5033879;28;20060;-61
2021/09/05 11:09:30;;;;;;;9.63;6.90;;;;;;;25.74;55.94;101306.69;5032693;28;20171;-61
2021/09/05 11:12:27;;;;;;;11.35;6.75;;;;;;;25.92;54.81;101299.84;5031025;28;20041;-62
2021/09/05 11:14:56;;;;;;;13.68;6.88;;;;;;;26.17;54.42;101289.38;5027568;28;20066;-61
2021/09/05 11:17:30;;;;;;;9.63;6.18;;;;;;;26.37;54.14;101293.38;5033320;28;20053;-61
2021/09/05 11:19:58;;;;;;;11.45;6.93;;;;;;;26.53;53.38;101290.09;5030323;28;20057;-61
2021/09/05 11:22:28;;;;;;;12.15;7.18;;;;;;;26.28;52.95;101289.34;5028894;28;20037;-61
2021/09/05 11:25:24;;;;;;;13.35;6.90;;;;;;;26.03;54.38;101289.38;5031973;28;20056;-61
2021/09/05 11:28:05;;;;;;;13.63;7.20;;;;;;;26.30;53.18;101282.09;5013950;28;20440;-66
2021/09/05 11:30:57;;;;;;;9.93;6.68;;;;;;;26.67;52.25;101282.41;5035933;28;20519;-67
2021/09/05 11:33:27;;;;;;;8.77;5.90;;;;;;;26.88;51.50;101277.91;5032290;28;20041;-66
2021/09/05 11:35:54;;;;;;;10.45;7.38;;;;;;;27.12;51.09;101282.63;5033996;28;20052;-66
2021/09/05 11:38:27;;;;;;;10.90;7.38;;;;;;;27.36;49.97;101281.69;5037046;28;20523;-66
2021/09/05 11:40:56;;;;;;;10.57;7.30;;;;;;;27.31;49.80;101284.97;5036825;28;20044;-66
2021/09/05 11:43:38;;;;;;;10.45;6.93;;;;;;;27.21;50.08;101285.81;5037021;28;20057;-67
2021/09/05 11:46:17;;;;;;;12.70;6.70;;;;;;;26.80;50.82;101290.47;5028617;28;20053;-66
2021/09/05 11:48:55;;;;;;;11.82;6.00;;;;;;;26.90;50.88;101279.13;5035474;28;20544;-66
2021/09/05 11:51:25;;;;;;;14.80;8.75;;;;;;;26.92;50.99;101279.47;5035559;28;20057;-66